• Join FlightAware (Why Join?)
  • Login
  • US Flag 
05:56PM EDT


 

Airport Tracker/Info


-or-


 

Live Flight TrackerFlight Track Log ✈ N536WC ✈ 08-Sep-2013 ✈ KELP - KLBX

Flight Track Log - Related Links

Times and Time Zones

All times are in EDT time to prevent confusion due to time zone crossing. See the N536WC flight status page for this flight to view local times or setup timezone preferences in your user account.

Time Position Orientation Groundspeed Altitude Reporting Facility
EDT Latitude Longitude Course Direction KTS MPH feet Rate Location/Type
09:37PM 31.8028 -106.3353 91° East 80 92 4,600  Level Albuquerque Center
09:38PM 31.8025 -106.3103 91° East 80 92 4,800 180 Climbing Albuquerque Center
09:39PM 31.8022 -106.2947 91° East 76 87 4,900 180 Climbing Albuquerque Center
09:39PM 31.8047 -106.2872 69° East 81 93 5,000 360 Climbing Albuquerque Center
09:40PM 31.8108 -106.2706 67° East 79 91 5,300 480 Climbing Albuquerque Center
09:40PM 31.8131 -106.2628 71° East 81 93 5,500 480 Climbing Albuquerque Center
09:41PM 31.8178 -106.2458 72° East 80 92 5,800 360 Climbing Albuquerque Center
09:41PM 31.8194 -106.2386 75° East 81 93 5,900 480 Climbing Albuquerque Center
09:42PM 31.8253 -106.2219 68° East 78 90 6,300 480 Climbing Albuquerque Center
09:42PM 31.8292 -106.2111 67° East 82 94 6,400 240 Climbing Albuquerque Center
09:43PM 31.8322 -106.1958 77° East 83 96 6,600 360 Climbing Albuquerque Center
09:43PM 31.8311 -106.1856 97° East 84 97 6,800 480 Climbing Albuquerque Center
09:44PM 31.8311 -106.1689 90° East 83 96 7,100 360 Climbing Albuquerque Center
09:44PM 31.8303 -106.1583 95° East 81 93 7,200 360 Climbing Albuquerque Center
09:45PM 31.8294 -106.1425 94° East 81 93 7,500 360 Climbing Albuquerque Center
09:45PM 31.8286 -106.1261 93° East 83 96 7,700 360 Climbing Albuquerque Center
09:46PM 31.8275 -106.1153 97° East 84 97 7,900 360 Climbing Albuquerque Center
09:46PM 31.8256 -106.0969 97° East 84 97 8,100 360 Climbing Albuquerque Center
09:47PM 31.8250 -106.0817 92° East 87 100 8,300 360 Climbing Albuquerque Center
09:47PM 31.8228 -106.0703 103° East 89 102 8,500 360 Climbing Albuquerque Center
09:48PM 31.8225 -106.0531 91° East 89 102 8,700 240 Climbing Albuquerque Center
09:48PM 31.8214 -106.0406 96° East 89 102 8,800 180 Climbing Albuquerque Center
09:49PM 31.8206 -106.0250 94° East 86 99 8,900  Climbing Albuquerque Center
09:49PM 31.8183 -106.0114 101° East 88 101 8,800  Descending Albuquerque Center
09:50PM 31.8181 -105.9922 91° East 100 115 8,900 180 Climbing Albuquerque Center
09:50PM 31.8161 -105.9767 98° East 110 127 9,000  Climbing Albuquerque Center
09:51PM 31.8150 -105.9542 93° East 115 132 8,900  Descending Albuquerque Center
09:51PM 31.8128 -105.9350 98° East 128 147 9,000  Climbing Albuquerque Center
09:52PM 31.8131 -105.9108 89° East 129 148 8,900 -120 Descending Albuquerque Center
09:52PM 31.8089 -105.8911 104° East 134 154 8,900  Level Albuquerque Center
09:53PM 31.8089 -105.8689 90° East 130 150 8,900 60 Level Albuquerque Center
09:54PM 31.8072 -105.8261 93° East 129 148 9,000  Climbing Albuquerque Center
09:55PM 31.8039 -105.7858 96° East 124 143 8,900 -60 Descending Albuquerque Center
09:56PM 31.8008 -105.7361 94° East 127 146 8,900  Level Albuquerque Center
09:57PM 31.7969 -105.6953 96° East 126 145 9,000  Climbing Albuquerque Center
09:58PM 31.7942 -105.6558 95° East 122 140 9,000  Level Albuquerque Center
09:59PM 31.7897 -105.6172 98° East 120 138 9,000  Level Albuquerque Center
10:00PM 31.7869 -105.5794 95° East 116 133 9,000  Level Albuquerque Center
10:01PM 31.7836 -105.5411 96° East 118 136 9,000  Level Albuquerque Center
10:02PM 31.7814 -105.5022 94° East 119 137 9,000  Level Albuquerque Center
10:03PM 31.7778 -105.4619 96° East 123 142 9,000  Level Albuquerque Center
10:04PM 31.7747 -105.4219 95° East 123 142 9,000  Level Albuquerque Center
10:05PM 31.7717 -105.3825 95° East 121 139 9,000  Level Albuquerque Center
10:06PM 31.7681 -105.3339 95° East 124 143 9,000  Level Albuquerque Center
10:07PM 31.7656 -105.2942 94° East 122 140 9,000  Level Albuquerque Center
10:08PM 31.7619 -105.2536 96° East 123 142 9,000  Level Albuquerque Center
10:09PM 31.7586 -105.2142 96° East 123 142 9,000  Level Albuquerque Center
10:10PM 31.7558 -105.1756 95° East 121 139 9,000  Level Albuquerque Center
10:11PM 31.7522 -105.1358 96° East 121 139 9,000  Level Albuquerque Center
10:12PM 31.7486 -105.0950 96° East 123 142 9,000  Level Albuquerque Center
10:13PM 31.7458 -105.0539 95° East 124 143 9,000  Level Albuquerque Center
10:15PM 31.7444 -105.0139 92° East 124 143 9,000 -60 Level Albuquerque Center
10:16PM 31.7406 -104.9667 96° East 123 142 8,900  Descending Albuquerque Center
10:17PM 31.7381 -104.9272 94° East 122 140 9,000  Climbing Albuquerque Center
10:18PM 31.7358 -104.8886 94° East 121 139 9,000  Level Albuquerque Center
10:19PM 31.7342 -104.8497 93° East 120 138 9,000  Level Albuquerque Center
10:20PM 31.7311 -104.8100 95° East 120 138 9,000  Level Albuquerque Center
10:21PM 31.7283 -104.7700 95° East 121 139 9,000 -60 Level Albuquerque Center
10:22PM 31.7264 -104.7317 93° East 121 139 8,900  Descending Albuquerque Center
10:23PM 31.7225 -104.6919 97° East 121 139 9,000 60 Climbing Albuquerque Center
10:24PM 31.7206 -104.6528 93° East 121 139 9,100  Climbing Albuquerque Center
10:25PM 31.7183 -104.6133 94° East 121 139 9,000 -60 Descending Albuquerque Center
10:26PM 31.7142 -104.5614 95° East 131 151 9,000  Level Albuquerque Center
10:27PM 31.7117 -104.5189 94° East 130 150 9,000  Level Albuquerque Center
10:28PM 31.7092 -104.4781 94° East 127 146 9,000  Level Albuquerque Center
10:29PM 31.7064 -104.4367 94° East 126 145 9,000  Level Albuquerque Center
10:30PM 31.7039 -104.3950 94° East 128 147 9,000  Level Albuquerque Center
10:31PM 31.6994 -104.3528 97° East 131 151 9,000  Level Albuquerque Center
10:32PM 31.6981 -104.3103 92° East 130 150 9,000  Level Albuquerque Center
10:33PM 31.6944 -104.2669 96° East 132 152 9,000  Level Albuquerque Center
10:34PM 31.6919 -104.2253 94° East 130 150 9,000  Level Albuquerque Center
10:35PM 31.6892 -104.1833 94° East 130 150 9,000  Level Albuquerque Center
10:36PM 31.6844 -104.1336 96° East 129 148 9,000  Level Albuquerque Center
10:37PM 31.6822 -104.0925 94° East 127 146 9,000  Level Albuquerque Center
10:38PM 31.6794 -104.0506 94° East 128 147 9,000  Level Albuquerque Center
10:39PM 31.6764 -104.0075 95° East 132 152 9,000  Level Albuquerque Center
10:40PM 31.6744 -103.9650 93° East 131 151 9,000  Level Albuquerque Center
10:41PM 31.6711 -103.9228 95° East 130 150 9,000  Level Albuquerque Center
10:42PM 31.6669 -103.8800 97° East 131 151 9,000  Level Albuquerque Center
10:43PM 31.6642 -103.8369 94° East 132 152 9,000  Level Albuquerque Center
10:44PM 31.6611 -103.7947 95° East 131 151 9,000  Level Albuquerque Center
10:45PM 31.6578 -103.7431 94° East 133 153 9,000  Level Albuquerque Center
10:46PM 31.6531 -103.6994 97° East 134 154 9,000  Level Albuquerque Center
10:47PM 31.6503 -103.6561 94° East 134 154 9,000  Level Albuquerque Center
10:48PM 31.6469 -103.6133 95° East 133 153 9,000  Level Albuquerque Center
10:49PM 31.6439 -103.5703 95° East 133 153 9,000  Level Albuquerque Center
10:50PM 31.6408 -103.5267 95° East 133 153 9,000  Level Albuquerque Center
10:51PM 31.6378 -103.4833 95° East 134 154 9,000  Level Albuquerque Center
10:52PM 31.6342 -103.4408 96° East 133 153 9,000  Level Albuquerque Center
10:53PM 31.6303 -103.3981 96° East 132 152 9,000  Level Albuquerque Center
10:54PM 31.6267 -103.3558 96° East 132 152 9,000  Level Albuquerque Center
10:55PM 31.6225 -103.3050 95° East 131 151 9,000  Level Albuquerque Center
10:56PM 31.6194 -103.2625 95° East 131 151 9,000  Level Albuquerque Center
10:57PM 31.6167 -103.2200 94° East 130 150 9,000  Level Albuquerque Center
10:58PM 31.6131 -103.1789 96° East 129 148 9,000  Level Albuquerque Center
10:59PM 31.6100 -103.1372 95° East 129 148 9,000  Level Albuquerque Center
11:00PM 31.6075 -103.0947 94° East 129 148 9,000  Level Albuquerque Center
11:01PM 31.6039 -103.0528 96° East 129 148 9,000  Level Albuquerque Center
11:02PM 31.6017 -103.0103 94° East 131 151 9,000  Level Albuquerque Center
11:03PM 31.5981 -102.9703 96° East 126 145 9,000  Level Albuquerque Center
11:04PM 31.5953 -102.9292 95° East 127 146 9,000  Level Albuquerque Center
11:06PM 31.5914 -102.8814 95° East 124 143 9,000  Level Albuquerque Center
11:07PM 31.5878 -102.8411 96° East 124 143 9,000  Level Albuquerque Center
11:08PM 31.5811 -102.7803 97° East 124 143 9,000  Level Fort Worth Center
11:09PM 31.5786 -102.7408 94° East 124 143 9,000  Level Fort Worth Center
11:10PM 31.5761 -102.6994 94° East 124 143 9,000  Level Fort Worth Center
11:11PM 31.5736 -102.6578 94° East 124 143 9,000  Level Fort Worth Center
11:12PM 31.5692 -102.6136 97° East 124 143 9,000  Level Fort Worth Center
11:13PM 31.5647 -102.5694 97° East 124 143 9,000  Level Fort Worth Center
11:14PM 31.5622 -102.5281 94° East 124 143 9,000  Level Fort Worth Center
11:15PM 31.5600 -102.4839 93° East 124 143 9,000  Level Fort Worth Center
11:16PM 31.5553 -102.4422 98° East 124 143 9,000  Level Fort Worth Center
11:17PM 31.5467 -102.4003 104° East 124 143 9,000  Level Fort Worth Center
11:18PM 31.5333 -102.3631 113° Southeast 124 143 9,000  Level Fort Worth Center
11:19PM 31.5206 -102.3211 110° East 130 150 9,000  Level Fort Worth Center
11:20PM 31.5072 -102.2814 111° Southeast 130 150 9,000  Level Fort Worth Center
11:21PM 31.4944 -102.2392 110° East 130 150 9,000  Level Fort Worth Center
11:22PM 31.4814 -102.1972 110° East 130 150 9,100  Climbing Fort Worth Center
11:23PM 31.4683 -102.1550 110° East 130 150 9,000 -60 Descending Fort Worth Center
11:24PM 31.4553 -102.1131 110° East 130 150 9,000  Level Fort Worth Center
11:25PM 31.4422 -102.0711 110° East 130 150 9,000  Level Fort Worth Center
11:26PM 31.4269 -102.0314 114° Southeast 130 150 9,000  Level Fort Worth Center
11:27PM 31.4139 -101.9917 111° Southeast 130 150 9,000  Level Fort Worth Center
11:28PM 31.4008 -101.9472 109° East 130 150 9,000  Level Fort Worth Center
11:29PM 31.3878 -101.9053 110° East 130 150 9,000  Level Fort Worth Center
11:30PM 31.3744 -101.8658 112° Southeast 130 150 9,000 -120 Level Fort Worth Center
11:31PM 31.3706 -101.8522 108° East 135 155 8,900 -120 Descending Houston Center
11:32PM 31.3581 -101.8117 110° East 134 154 8,900  Level Houston Center
11:33PM 31.3444 -101.7747 113° Southeast 127 146 9,000  Climbing Houston Center
11:34PM 31.3300 -101.7261 109° East 130 150 9,000  Level Houston Center
11:35PM 31.3172 -101.6883 112° Southeast 127 146 9,000  Level Houston Center
11:36PM 31.3042 -101.6483 111° Southeast 130 150 9,000  Level Houston Center
11:37PM 31.2922 -101.6094 110° East 128 147 9,000  Level Houston Center
11:38PM 31.2786 -101.5703 112° Southeast 130 150 9,000  Level Houston Center
11:39PM 31.2664 -101.5319 110° East 127 146 9,000 -60 Level Houston Center
11:40PM 31.2536 -101.4936 111° Southeast 126 145 8,900  Descending Houston Center
11:41PM 31.2408 -101.4556 111° Southeast 127 146 9,000  Climbing Houston Center
11:42PM 31.2289 -101.4156 109° East 129 148 9,000  Level Houston Center
11:43PM 31.2164 -101.3761 110° East 130 150 9,000  Level Houston Center
11:44PM 31.2033 -101.3378 112° Southeast 128 147 9,000 -60 Level Houston Center
11:45PM 31.1908 -101.3031 113° Southeast 129 148 8,900 -60 Descending Houston Center
11:46PM 31.1792 -101.2631 109° East 130 150 8,900  Level Houston Center
11:47PM 31.1658 -101.2258 113° Southeast 126 145 9,000  Climbing Houston Center
11:48PM 31.1542 -101.1867 109° East 127 146 9,000  Level Houston Center
11:49PM 31.1392 -101.1400 111° Southeast 128 147 9,000 -60 Level Houston Center
11:50PM 31.1258 -101.1006 112° Southeast 131 151 8,900  Descending Houston Center
11:51PM 31.1119 -101.0614 112° Southeast 130 150 9,000  Climbing Houston Center
11:52PM 31.0992 -101.0217 111° Southeast 130 150 9,000  Level Houston Center
11:53PM 31.0861 -100.9811 111° Southeast 133 153 9,000  Level Houston Center
11:54PM 31.0722 -100.9414 112° Southeast 133 153 9,000  Level Houston Center
11:55PM 31.0597 -100.9006 110° East 134 154 9,000 -60 Level Houston Center
11:56PM 31.0461 -100.8606 112° Southeast 133 153 8,900 -60 Descending Houston Center
11:57PM 31.0331 -100.8200 111° Southeast 133 153 8,900  Level Houston Center
11:58PM 31.0194 -100.7794 111° Southeast 135 155 9,000  Climbing Houston Center
11:59PM 31.0064 -100.7394 111° Southeast 134 154 9,000  Level Houston Center
12:00AM 30.9925 -100.7000 112° Southeast 132 152 9,000  Level Houston Center
12:01AM 30.9789 -100.6589 111° Southeast 135 155 9,000  Level Houston Center
12:02AM 30.9661 -100.6178 110° East 136 157 9,000 -60 Level Houston Center
12:03AM 30.9514 -100.5767 113° Southeast 137 158 8,900  Descending Houston Center
12:04AM 30.9381 -100.5364 111° Southeast 134 154 9,000  Climbing Houston Center
12:05AM 30.9242 -100.4956 112° Southeast 135 155 9,000 -60 Level Houston Center
12:06AM 30.9106 -100.4542 111° Southeast 136 157 8,900  Descending Houston Center
12:07AM 30.8972 -100.4131 111° Southeast 136 157 9,000  Climbing Houston Center
12:08AM 30.8833 -100.3725 112° Southeast 135 155 9,000 -60 Level Houston Center
12:09AM 30.8708 -100.3342 111° Southeast 130 150 8,900 -60 Descending Houston Center
12:10AM 30.8567 -100.2944 113° Southeast 132 152 8,900  Level Houston Center
12:11AM 30.8439 -100.2553 111° Southeast 130 150 8,900  Level Houston Center
12:12AM 30.8300 -100.2161 112° Southeast 131 151 8,900  Level Houston Center
12:13AM 30.8169 -100.1767 111° Southeast 131 151 9,000  Climbing Houston Center
12:14AM 30.8047 -100.1381 110° East 129 148 9,000  Level Houston Center
12:15AM 30.7903 -100.0981 113° Southeast 132 152 9,000  Level Houston Center
12:16AM 30.7778 -100.0589 110° East 130 150 9,000 -60 Level Houston Center
12:17AM 30.7642 -100.0183 111° Southeast 133 153 8,900 -60 Descending Houston Center
12:18AM 30.7497 -99.9772 112° Southeast 135 155 8,900  Level Houston Center
12:19AM 30.7342 -99.9297 111° Southeast 133 153 9,000  Climbing Houston Center
12:20AM 30.7194 -99.8897 113° Southeast 134 154 9,000  Level Houston Center
12:21AM 30.7064 -99.8514 112° Southeast 132 152 9,000  Level Houston Center
12:22AM 30.6936 -99.8122 111° Southeast 130 150 9,000 -60 Level Houston Center
12:23AM 30.6806 -99.7731 111° Southeast 130 150 8,900 -60 Descending Houston Center
12:24AM 30.6756 -99.7339 98° East 136 157 8,900  Level Houston Center
12:25AM 30.6553 -99.6978 123° Southeast 136 157 8,900  Level Houston Center
12:26AM 30.6406 -99.6581 113° Southeast 134 154 8,900  Level Houston Center
12:27AM 30.6275 -99.6183 111° Southeast 134 154 8,900  Level Houston Center
12:28AM 30.6125 -99.5794 114° Southeast 133 153 8,900  Level Houston Center
12:29AM 30.5997 -99.5400 111° Southeast 132 152 8,900 -60 Level Houston Center
12:30AM 30.5872 -99.5006 110° East 130 150 8,800  Descending Houston Center
12:31AM 30.5725 -99.4619 114° Southeast 130 150 8,900  Climbing Houston Center
12:32AM 30.5575 -99.4236 114° Southeast 130 150 8,900  Level Houston Center
12:33AM 30.5436 -99.3853 113° Southeast 130 150 8,900  Level Houston Center
12:34AM 30.5275 -99.3467 116° Southeast 132 152 8,900  Level Houston Center
12:35AM 30.5142 -99.3072 111° Southeast 131 151 8,900  Level Houston Center
12:36AM 30.4983 -99.2694 116° Southeast 130 150 8,900  Level Houston Center
12:37AM 30.4836 -99.2294 113° Southeast 133 153 8,900  Level Houston Center
12:38AM 30.4686 -99.1894 114° Southeast 135 155 8,900  Level Houston Center
12:39AM 30.4522 -99.1489 115° Southeast 137 158 8,900  Level Houston Center
12:40AM 30.4356 -99.1069 115° Southeast 137 158 8,900 -60 Level Houston Center
12:41AM 30.4203 -99.0661 113° Southeast 137 158 8,800  Descending Houston Center
12:42AM 30.4056 -99.0256 113° Southeast 136 157 8,900  Climbing Houston Center
12:43AM 30.3911 -98.9836 112° Southeast 139 160 8,900  Level Houston Center
12:44AM 30.3761 -98.9433 113° Southeast 137 158 8,900  Level Houston Center
12:45AM 30.3617 -98.9036 113° Southeast 134 154 8,900  Level Houston Center
12:46AM 30.3464 -98.8636 114° Southeast 135 155 8,900  Level Houston Center
12:47AM 30.3344 -98.8233 109° East 133 153 8,900  Level Houston Center
12:48AM 30.3181 -98.7822 115° Southeast 138 159 8,900 -60 Level Houston Center
12:49AM 30.3042 -98.7419 112° Southeast 134 154 8,800  Descending Houston Center
12:50AM 30.2906 -98.7008 111° Southeast 134 154 8,900  Climbing Houston Center
12:51AM 30.2767 -98.6633 113° Southeast 129 148 8,900  Level Houston Center
12:52AM 30.2633 -98.6244 112° Southeast 131 151 8,900  Level Houston Center
12:53AM 30.2500 -98.5864 112° Southeast 129 148 8,900  Level Houston Center
12:54AM 30.2361 -98.5475 112° Southeast 129 148 8,900  Level Houston Center
12:55AM 30.2222 -98.5100 113° Southeast 129 148 8,900  Level Houston Center
12:56AM 30.2086 -98.4706 112° Southeast 133 153 8,900  Level Houston Center
12:57AM 30.1950 -98.4308 112° Southeast 136 157 8,900 -60 Level Houston Center
12:58AM 30.1808 -98.3906 112° Southeast 133 153 8,800  Descending Houston Center
12:59AM 30.1669 -98.3525 113° Southeast 130 150 8,900  Climbing Houston Center
01:00AM 30.1528 -98.3131 113° Southeast 132 152 8,900  Level Houston Center
01:01AM 30.1394 -98.2744 112° Southeast 130 150 8,900  Level Houston Center
01:02AM 30.1258 -98.2342 111° Southeast 133 153 8,900  Level Houston Center
01:03AM 30.1103 -98.1947 114° Southeast 133 153 8,900  Level Houston Center
01:04AM 30.0972 -98.1550 111° Southeast 133 153 8,900  Level Houston Center
01:05AM 30.0836 -98.1158 112° Southeast 133 153 8,900  Level Houston Center
01:06AM 30.0697 -98.0756 112° Southeast 127 146 8,900  Level Houston Center
01:07AM 30.0558 -98.0372 113° Southeast 130 150 8,900 -60 Level Houston Center
01:08AM 30.0422 -97.9989 112° Southeast 129 148 8,800  Descending Houston Center
01:09AM 30.0281 -97.9614 114° Southeast 128 147 8,900  Climbing Houston Center
01:10AM 30.0153 -97.9242 112° Southeast 126 145 8,900  Level Houston Center
01:11AM 30.0019 -97.8858 112° Southeast 129 148 8,900  Level Houston Center
01:12AM 29.9889 -97.8481 112° Southeast 129 148 8,900  Level Houston Center
01:13AM 29.9750 -97.8097 113° Southeast 130 150 8,900  Level Houston Center
01:14AM 29.9617 -97.7700 111° Southeast 131 151 8,900  Level Houston Center
01:15AM 29.9478 -97.7322 113° Southeast 128 147 8,900  Level Houston Center
01:16AM 29.9322 -97.6922 114° Southeast 135 155 8,900  Level Houston Center
01:17AM 29.9183 -97.6539 113° Southeast 131 151 8,900  Level Houston Center
01:18AM 29.9033 -97.6139 113° Southeast 137 158 8,900  Level Houston Center
01:19AM 29.8903 -97.5758 112° Southeast 131 151 8,900  Level Houston Center
01:20AM 29.8792 -97.5403 110° East 135 155 8,900  Level Houston Center
01:21AM 29.8650 -97.4994 112° Southeast 137 158 8,900  Level Houston Center
01:22AM 29.8506 -97.4619 114° Southeast 131 151 8,900  Level Houston Center
01:23AM 29.8369 -97.4225 112° Southeast 134 154 8,900  Level Houston Center
01:24AM 29.8228 -97.3836 113° Southeast 134 154 8,900  Level Houston Center
01:25AM 29.8083 -97.3436 113° Southeast 135 155 8,900  Level Houston Center
01:26AM 29.7942 -97.3039 112° Southeast 134 154 8,900  Level Houston Center
01:27AM 29.7789 -97.2639 114° Southeast 136 157 8,900  Level Houston Center
01:28AM 29.7650 -97.2242 112° Southeast 135 155 8,900  Level Houston Center
01:29AM 29.7497 -97.1828 113° Southeast 139 160 8,900  Level Houston Center
01:30AM 29.7353 -97.1422 112° Southeast 138 159 8,900  Level Houston Center
01:31AM 29.7208 -97.1028 113° Southeast 135 155 8,900  Level Houston Center
01:32AM 29.7061 -97.0633 113° Southeast 135 155 8,900 -60 Level Houston Center
01:33AM 29.6911 -97.0225 113° Southeast 138 159 8,800  Descending Houston Center
01:34AM 29.6758 -96.9811 113° Southeast 141 162 8,900  Climbing Houston Center
01:35AM 29.6606 -96.9411 114° Southeast 137 158 8,900  Level Houston Center
01:36AM 29.6469 -96.9014 112° Southeast 135 155 8,900  Level Houston Center
01:37AM 29.6319 -96.8617 113° Southeast 135 155 8,900  Level Houston Center
01:38AM 29.6167 -96.8214 114° Southeast 136 157 8,900  Level Houston Center
01:39AM 29.6031 -96.7822 112° Southeast 133 153 8,900  Level Houston Center
01:40AM 29.5883 -96.7436 114° Southeast 132 152 8,900  Level Houston Center
01:41AM 29.5733 -96.7044 114° Southeast 132 152 8,900  Level Houston Center
01:42AM 29.5592 -96.6661 113° Southeast 130 150 8,900  Level Houston Center
01:43AM 29.5456 -96.6269 112° Southeast 132 152 8,900  Level Houston Center
01:44AM 29.5314 -96.5878 113° Southeast 132 152 8,900 -60 Level Houston Center
01:45AM 29.5167 -96.5492 114° Southeast 132 152 8,800 -180 Descending Houston Center
01:46AM 29.5094 -96.5328 117° Southeast 135 155 8,700 -480 Descending Houston Center
01:46AM 29.5008 -96.5075 111° Southeast 142 163 8,400 -420 Descending Houston Center
01:46AM 29.5011 -96.5067 69° East 141 162 8,400 -600 Level Houston Center
01:47AM 29.4844 -96.4614 113° Southeast 161 185 7,800 -600 Descending Houston Center
01:47AM 29.4839 -96.4597 111° Southeast 156 180 7,800 -420 Level Houston Center
01:48AM 29.4658 -96.4153 115° Southeast 155 178 7,400 -420 Descending Houston Center
01:48AM 29.4669 -96.4150 12° North 154 177 7,400 -120 Level Houston Center
01:49AM 29.4497 -96.3717 115° Southeast 146 168 7,300  Descending Houston Center
01:49AM 29.4511 -96.3736 309° West 143 165 7,400 -120 Climbing Houston Center
01:50AM 29.4356 -96.3275 111° Southeast 143 165 7,200 -240 Descending Houston Center
01:50AM 29.4347 -96.3294 244° Southwest 149 171 7,200 -300 Level Houston Center
01:51AM 29.4172 -96.2842 114° Southeast 153 176 6,900 -240 Descending Houston Center
01:51AM 29.4181 -96.2850 319° Northwest 152 175 7,000 -120 Climbing Houston Center
01:52AM 29.4006 -96.2381 113° Southeast 154 177 6,800 -240 Descending Houston Center
01:52AM 29.4014 -96.2403 293° West 152 175 6,800 -240 Level Houston Center
01:53AM 29.3842 -96.1942 113° Southeast 154 177 6,600 -240 Descending Houston Center
01:53AM 29.3856 -96.1953 325° Northwest 152 175 6,600 -120 Level Houston Center
01:54AM 29.3681 -96.1506 114° Southeast 151 174 6,500 -120 Descending Houston Center
01:54AM 29.3683 -96.1517 286° West 150 173 6,500 -240 Level Houston Center
01:55AM 29.3517 -96.1069 113° Southeast 150 173 6,300 -240 Descending Houston Center
01:55AM 29.3522 -96.1069 360° North 152 175 6,300 -420 Level Houston Center
01:56AM 29.3347 -96.0586 113° Southeast 152 175 5,900 -300 Descending Houston Center
01:56AM 29.3353 -96.0622 280° West 153 176 6,000 -300 Climbing Houston Center
01:57AM 29.3161 -96.0128 114° Southeast 156 180 5,600 -300 Descending Houston Center
01:57AM 29.3178 -96.0169 295° West 155 178 5,700 -240 Climbing Houston Center
01:58AM 29.2978 -95.9647 114° Southeast 157 181 5,400 -300 Descending Houston Center
01:58AM 29.2967 -95.9597 104° East 158 182 5,400 -300 Level Houston Center
01:59AM 29.2817 -95.9203 114° Southeast 154 177 5,100 -300 Descending Houston Center
01:59AM 29.2803 -95.9161 111° Southeast 155 178 5,100 -240 Level Houston Center
02:00AM 29.2647 -95.8744 113° Southeast 155 178 4,900 -240 Descending Houston Center
02:00AM 29.2617 -95.8706 132° Southeast 153 176 4,900  Level Houston Center
02:01AM 29.2478 -95.8308 112° Southeast 152 175 4,900 -120 Level Houston Center
02:01AM 29.2472 -95.8267 99° East 146 168 4,800 -420 Descending Houston Center
02:02AM 29.2317 -95.7872 114° Southeast 150 173 4,500 -420 Descending Houston Center
02:02AM 29.2286 -95.7808 119° Southeast 153 176 4,400 -600 Descending Houston Center
02:03AM 29.2131 -95.7394 113° Southeast 159 183 3,900 -540 Descending Houston Center
02:03AM 29.2117 -95.7328 103° East 164 189 3,900 -420 Level Houston Center
02:04AM 29.1956 -95.6931 115° Southeast 160 184 3,500 -540 Descending Houston Center
02:04AM 29.1928 -95.6847 111° Southeast 158 182 3,400 -120 Descending Houston Center
02:05AM 29.1789 -95.6489 114° Southeast 156 180 3,400  Level Houston Center
02:05AM 29.1764 -95.6433 117° Southeast 135 155 3,400 -540 Level Houston Center
02:06AM 29.1642 -95.6086 112° Southeast 143 165 2,900 -660 Descending Houston Center
02:07AM 29.1597 -95.5975 115° Southeast 145 167 2,700 -420 Descending Houston Center
02:07AM 29.1481 -95.5656 113° Southeast 145 167 2,500 -540 Descending Houston Center
02:08AM 29.1433 -95.5564 121° Southeast 143 165 2,200 -1,020 Descending Houston Center
02:08AM 29.1311 -95.5236 113° Southeast 145 167 1,500 -1,020 Descending Houston Center
02:09AM 29.1264 -95.5106 112° Southeast 156 180 1,200 -300 Descending Houston Center
02:09AM 29.1094 -95.4875 130° Southeast 144 166 1,200  Level Houston Center
02:10AM 29.1014 -95.4872 178° South 116 133 1,200 -120 Level Houston Center
02:10AM 29.0797 -95.4867 179° South 120 138 1,100 -240 Descending Houston Center
02:11AM 29.0797 -95.4803 90° East 89 102 1,000 -600 Descending Houston Center
02:11AM 29.0842 -95.4625 74° East 101 116 500 -540 Descending Houston Center
02:12AM 29.0886 -95.4625 360° North 83 96 500  Level Houston Center
02:13AM 29.0944 -95.4594 25° Northeast 83 96 500  Level Houston Center